createdAt,value
2019-02-14T00:02:28.289Z,96530.48
2019-02-14T00:04:57.340Z,96533.47
2019-02-14T00:07:26.640Z,96530.48
2019-02-14T00:09:56.224Z,96538.98
2019-02-14T00:12:25.471Z,96541.55
2019-02-14T00:14:54.186Z,96541.34
2019-02-14T00:17:23.266Z,96534.41
2019-02-14T00:19:52.554Z,96531.44
2019-02-14T00:22:21.541Z,96524.27
2019-02-14T00:24:50.417Z,96526.52
2019-02-14T00:27:20.416Z,96508.60
2019-02-14T00:29:49.310Z,96518.20
2019-02-14T00:32:18.744Z,96515.09
2019-02-14T00:34:47.683Z,96519.41
2019-02-14T00:37:16.727Z,96517.37
2019-02-14T00:39:45.589Z,96519.48
2019-02-14T00:42:14.404Z,96518.34
2019-02-14T00:44:43.480Z,96511.25
2019-02-14T00:47:12.483Z,96522.63
2019-02-14T00:49:41.415Z,96516.58
2019-02-14T00:52:10.568Z,96518.91
2019-02-14T00:54:40.315Z,96523.16
2019-02-14T00:57:09.226Z,96514.88
2019-02-14T00:59:38.176Z,96513.09
2019-02-14T01:18:51.612Z,96496.22
2019-02-14T01:21:21.765Z,96494.34
2019-02-14T01:40:35.819Z,96482.16
2019-02-14T01:43:04.804Z,96489.66
2019-02-14T01:45:33.742Z,96480.55
2019-02-14T01:48:03.364Z,96492.08
2019-02-14T01:50:32.279Z,96495.33
2019-02-14T01:53:01.471Z,96491.20
2019-02-14T01:55:32.498Z,96491.97
2019-02-14T02:14:43.828Z,96481.17
2019-02-14T02:17:12.872Z,96486.70
2019-02-14T02:19:41.708Z,96477.33
2019-02-14T02:22:10.801Z,96467.92
2019-02-14T02:24:39.850Z,96478.96
2019-02-14T02:27:08.896Z,96476.41
2019-02-14T02:29:37.810Z,96460.86
2019-02-14T02:32:06.721Z,96476.97
2019-02-14T02:34:36.388Z,96461.78
2019-02-14T02:37:05.539Z,96458.63
2019-02-14T02:39:34.524Z,96459.66
2019-02-14T02:42:03.459Z,96450.70
2019-02-14T02:44:32.360Z,96451.30
2019-02-14T02:47:01.527Z,96459.66
2019-02-14T02:49:30.797Z,96455.22
2019-02-14T02:52:00.321Z,96466.67
2019-02-14T02:54:29.190Z,96469.09
2019-02-14T03:13:43.154Z,96499.29
2019-02-14T03:16:12.407Z,96497.66
2019-02-14T03:18:41.507Z,96490.65
2019-02-14T03:21:10.453Z,96486.39
2019-02-14T03:23:39.382Z,96493.81
2019-02-14T03:26:08.440Z,96498.88
2019-02-14T03:28:37.538Z,96496.05
2019-02-14T03:31:06.482Z,96490.51
2019-02-14T03:33:35.379Z,96489.88
2019-02-14T03:36:04.295Z,96481.72
2019-02-14T03:38:33.367Z,96483.06
2019-02-14T03:41:02.238Z,96477.34
2019-02-14T03:43:31.160Z,96472.16
2019-02-14T03:46:00.235Z,96469.02
2019-02-14T03:48:29.327Z,96463.52
2019-02-14T03:50:59.177Z,96471.34
2019-02-14T03:53:28.412Z,96469.92
2019-02-14T03:55:57.459Z,96478.56
2019-02-14T03:58:26.320Z,96474.14
2019-02-14T04:00:55.971Z,96472.41
2019-02-14T04:20:09.423Z,96480.69
2019-02-14T04:22:43.308Z,96479.77
2019-02-14T04:25:12.600Z,96479.41
2019-02-14T04:27:41.803Z,96478.48
2019-02-14T04:30:14.114Z,96470.52
2019-02-14T04:32:43.023Z,96469.66
2019-02-14T04:51:58.319Z,96466.77
2019-02-14T04:54:27.380Z,96471.37
2019-02-14T04:56:56.345Z,96464.34
2019-02-14T04:59:25.227Z,96470.16
2019-02-14T05:01:54.346Z,96467.05
2019-02-14T05:04:23.231Z,96468.38
2019-02-14T05:06:52.384Z,96469.14
2019-02-14T05:26:07.783Z,96483.19
2019-02-14T05:28:36.868Z,96482.07
2019-02-14T05:31:05.866Z,96487.98
2019-02-14T05:33:34.989Z,96485.42
2019-02-14T05:36:04.009Z,96492.19
2019-02-14T05:38:32.880Z,96492.59
2019-02-14T05:41:01.783Z,96485.23
2019-02-14T05:43:31.210Z,96487.28
2019-02-14T05:46:00.688Z,96494.66
2019-02-14T05:48:29.851Z,96495.91
2019-02-14T05:50:59.862Z,96499.42
2019-02-14T05:53:29.767Z,96494.58
2019-02-14T05:55:59.812Z,96493.98
2019-02-14T05:58:28.638Z,96497.23
2019-02-14T06:00:57.628Z,96508.19
2019-02-14T06:03:26.639Z,96501.66
2019-02-14T06:05:55.629Z,96503.86
2019-02-14T06:25:10.641Z,96500.38
2019-02-14T06:27:39.578Z,96499.91
2019-02-14T06:30:10.383Z,96504.62
2019-02-14T06:32:39.341Z,96503.67
2019-02-14T06:35:09.010Z,96494.16
2019-02-14T06:37:38.625Z,96501.11
2019-02-14T06:40:09.085Z,96509.02
2019-02-14T06:42:38.160Z,96511.70
2019-02-14T06:45:08.823Z,96507.45
2019-02-14T06:47:38.523Z,96514.34
2019-02-14T06:50:07.716Z,96509.67
2019-02-14T06:52:37.927Z,96509.20
2019-02-14T06:55:07.179Z,96513.95
2019-02-14T06:57:36.372Z,96503.47
2019-02-14T07:00:05.645Z,96496.77
2019-02-14T07:02:34.727Z,96490.34
2019-02-14T07:05:04.675Z,96493.34
2019-02-14T07:07:33.584Z,96484.98
2019-02-14T07:10:02.675Z,96492.73
2019-02-14T07:12:31.591Z,96491.24
2019-02-14T07:15:00.595Z,96490.12
2019-02-14T07:17:29.744Z,96473.94
2019-02-14T07:19:58.669Z,96481.42
2019-02-14T07:22:27.671Z,96469.48
2019-02-14T07:24:56.711Z,96467.88
2019-02-14T07:27:25.753Z,96457.42
2019-02-14T07:29:54.516Z,96455.18
2019-02-14T07:32:23.612Z,96457.59
2019-02-14T07:34:52.420Z,96454.33
2019-02-14T07:37:26.909Z,96446.27
2019-02-14T07:39:50.977Z,96442.59
2019-02-14T07:42:20.032Z,96433.87
2019-02-14T07:44:48.707Z,96435.73
2019-02-14T07:47:17.752Z,96434.42
2019-02-14T07:49:46.499Z,96430.09
2019-02-14T07:52:15.551Z,96434.77
2019-02-14T07:54:44.316Z,96433.55
2019-02-14T07:57:14.000Z,96437.59
2019-02-14T07:59:42.991Z,96437.02
2019-02-14T08:02:12.545Z,96432.89
2019-02-14T08:04:41.578Z,96417.54
2019-02-14T08:07:10.612Z,96414.53
2019-02-14T08:09:39.568Z,96410.72
2019-02-14T08:12:08.579Z,96408.91
2019-02-14T08:14:37.687Z,96407.62
2019-02-14T08:17:06.654Z,96397.88
2019-02-14T08:19:36.223Z,96397.83
2019-02-14T08:22:05.340Z,96396.00
2019-02-14T08:24:34.936Z,96388.27
2019-02-14T08:27:04.570Z,96395.06
2019-02-14T08:29:33.266Z,96400.75
2019-02-14T08:32:02.443Z,96398.69
2019-02-14T08:34:32.165Z,96392.86
2019-02-14T08:37:01.186Z,96394.51
2019-02-14T08:39:30.277Z,96392.55
2019-02-14T08:41:59.352Z,96390.29
2019-02-14T08:44:28.545Z,96381.75
2019-02-14T08:46:57.748Z,96389.65
2019-02-14T08:49:26.916Z,96383.20
2019-02-14T08:51:55.776Z,96381.88
2019-02-14T08:54:25.147Z,96379.95
2019-02-14T08:56:54.071Z,96380.25
2019-02-14T08:59:23.599Z,96374.33
2019-02-14T09:01:52.648Z,96371.97
2019-02-14T09:04:21.546Z,96374.68
2019-02-14T09:06:50.739Z,96363.64
2019-02-14T09:09:20.344Z,96364.77
2019-02-14T09:11:50.715Z,96369.57
2019-02-14T09:14:19.999Z,96359.28
2019-02-14T09:16:49.052Z,96359.55
2019-02-14T09:19:17.959Z,96347.48
2019-02-14T09:21:47.813Z,96337.84
2019-02-14T09:24:16.763Z,96341.55
2019-02-14T09:26:45.627Z,96341.48
2019-02-14T09:29:15.383Z,96343.58
2019-02-14T09:31:44.766Z,96336.61
2019-02-14T09:34:13.958Z,96326.83
2019-02-14T09:36:43.667Z,96331.35
2019-02-14T09:39:13.496Z,96327.81
2019-02-14T09:41:42.475Z,96316.25
2019-02-14T09:44:11.430Z,96314.98
2019-02-14T09:46:40.374Z,96302.45
2019-02-14T09:49:10.683Z,96302.42
2019-02-14T09:51:39.730Z,96305.02
2019-02-14T09:54:09.405Z,96295.63
2019-02-14T09:56:38.879Z,96290.55
2019-02-14T09:59:07.845Z,96291.22
2019-02-14T10:01:36.827Z,96279.69
2019-02-14T10:04:05.857Z,96279.16
2019-02-14T10:06:36.779Z,96273.06
2019-02-14T10:09:06.012Z,96266.77
2019-02-14T10:11:34.843Z,96253.94
2019-02-14T10:14:04.360Z,96252.20
2019-02-14T10:16:33.719Z,96254.52
2019-02-14T10:19:03.320Z,96248.19
2019-02-14T10:21:32.160Z,96238.25
2019-02-14T10:24:01.109Z,96235.41
2019-02-14T10:26:29.991Z,96217.23
2019-02-14T10:28:59.021Z,96220.59
2019-02-14T10:31:27.886Z,96213.51
2019-02-14T10:33:56.972Z,96205.55
2019-02-14T10:36:25.802Z,96206.69
2019-02-14T10:38:56.163Z,96200.20
2019-02-14T10:41:25.086Z,96209.44
2019-02-14T10:43:54.413Z,96189.64
2019-02-14T10:46:23.395Z,96186.75
2019-02-14T10:48:52.356Z,96188.14
2019-02-14T10:51:21.551Z,96190.58
2019-02-14T10:53:51.193Z,96199.28
2019-02-14T10:56:20.743Z,96185.97
2019-02-14T10:58:49.737Z,96183.30
2019-02-14T11:01:18.707Z,96178.59
2019-02-14T11:03:47.670Z,96180.46
2019-02-14T11:06:17.425Z,96165.40
2019-02-14T11:08:46.966Z,96170.61
2019-02-14T11:11:15.888Z,96172.66
2019-02-14T11:13:45.047Z,96154.52
2019-02-14T11:16:14.071Z,96159.80
2019-02-14T11:18:44.554Z,96170.91
2019-02-14T11:21:12.314Z,96155.61
2019-02-14T11:23:41.354Z,96162.80
2019-02-14T11:42:55.775Z,96134.67
2019-02-14T11:45:24.827Z,96133.59
2019-02-14T11:47:53.923Z,96122.55
2019-02-14T11:50:23.036Z,96117.03
2019-02-14T11:52:53.240Z,96116.83
2019-02-14T11:55:23.127Z,96112.58
2019-02-14T11:57:52.234Z,96103.43
2019-02-14T12:00:21.994Z,96106.44
2019-02-14T12:02:55.409Z,96111.98
2019-02-14T12:05:20.579Z,96113.42
2019-02-14T12:07:50.789Z,96109.60
2019-02-14T12:10:20.638Z,96102.66
2019-02-14T12:12:49.800Z,96104.72
2019-02-14T12:15:19.401Z,96098.08
2019-02-14T12:17:48.502Z,96100.60
2019-02-14T12:20:17.524Z,96102.33
2019-02-14T12:22:47.403Z,96110.43
2019-02-14T12:25:16.713Z,96105.38
2019-02-14T12:27:46.045Z,96105.79
2019-02-14T12:30:15.997Z,96104.67
2019-02-14T12:32:45.220Z,96103.29
2019-02-14T12:35:14.034Z,96107.44
2019-02-14T12:37:43.075Z,96104.65
2019-02-14T12:40:12.749Z,96098.48
2019-02-14T12:42:42.229Z,96098.73
2019-02-14T13:01:57.414Z,96108.64
2019-02-14T13:04:26.354Z,96105.34
2019-02-14T13:06:56.039Z,96100.80
2019-02-14T13:09:25.189Z,96097.73
2019-02-14T13:11:54.349Z,96105.31
2019-02-14T13:14:23.994Z,96101.84
2019-02-14T13:16:53.316Z,96095.48
2019-02-14T13:36:07.267Z,96093.16
2019-02-14T13:38:36.932Z,96090.88
2019-02-14T13:41:06.047Z,96103.53
2019-02-14T13:43:35.609Z,96090.95
2019-02-14T13:46:05.843Z,96091.20
2019-02-14T13:48:35.525Z,96095.04
2019-02-14T13:51:04.578Z,96087.83
2019-02-14T13:53:33.656Z,96083.72
2019-02-14T13:56:03.304Z,96090.68
2019-02-14T13:58:32.260Z,96087.38
2019-02-14T14:01:03.310Z,96096.70
2019-02-14T14:03:30.830Z,96093.27
2019-02-14T14:06:00.131Z,96092.27
2019-02-14T14:08:29.029Z,96083.80
2019-02-14T14:10:58.132Z,96082.36
2019-02-14T14:13:27.055Z,96083.34
2019-02-14T14:15:56.207Z,96083.24
2019-02-14T14:18:25.516Z,96074.85
2019-02-14T14:20:54.638Z,96072.27
2019-02-14T14:23:23.755Z,96069.73
2019-02-14T14:25:52.588Z,96071.14
2019-02-14T14:28:21.864Z,96074.48
2019-02-14T14:30:50.789Z,96070.99
2019-02-14T14:33:19.778Z,96071.88
2019-02-14T14:35:48.684Z,96064.17
2019-02-14T14:38:17.962Z,96067.45
2019-02-14T14:40:47.372Z,96075.27
2019-02-14T14:43:21.724Z,96069.08
2019-02-14T14:46:01.736Z,96070.06
2019-02-14T14:48:36.339Z,96075.45
2019-02-14T14:51:05.280Z,96080.41
2019-02-14T14:53:34.973Z,96079.95
2019-02-14T14:56:04.120Z,96086.92
2019-02-14T14:58:33.685Z,96083.91
2019-02-14T15:17:48.042Z,96094.98
2019-02-14T15:20:18.438Z,96098.05
2019-02-14T15:22:47.235Z,96095.62
2019-02-14T15:42:01.502Z,96114.17
2019-02-14T15:44:31.716Z,96120.63
2019-02-14T15:47:00.648Z,96114.51
2019-02-14T15:49:30.040Z,96116.72
2019-02-14T15:51:59.995Z,96124.19
2019-02-14T15:54:31.353Z,96131.78
2019-02-14T15:56:59.443Z,96124.83
2019-02-14T15:59:28.942Z,96129.67
2019-02-14T16:01:57.979Z,96121.45
2019-02-14T16:04:28.974Z,96120.31
2019-02-14T16:06:57.441Z,96116.91
2019-02-14T16:09:26.616Z,96112.59
2019-02-14T16:28:41.231Z,96116.58
2019-02-14T16:31:10.629Z,96115.24
2019-02-14T16:33:40.916Z,96117.39
2019-02-14T16:36:09.766Z,96120.70
2019-02-14T16:38:43.054Z,96119.44
2019-02-14T16:41:12.141Z,96115.27
2019-02-14T16:43:41.187Z,96125.86
2019-02-14T16:46:10.832Z,96133.14
2019-02-14T16:48:39.709Z,96121.42
2019-02-14T16:51:10.850Z,96122.37
2019-02-14T16:53:39.959Z,96127.08
2019-02-14T16:56:09.548Z,96135.95
2019-02-14T16:58:38.531Z,96125.98
2019-02-14T17:01:08.112Z,96120.17
2019-02-14T17:03:37.068Z,96117.29
2019-02-14T17:06:06.644Z,96124.73
2019-02-14T17:08:36.980Z,96120.98
2019-02-14T17:11:06.580Z,96118.23
2019-02-14T17:13:36.377Z,96118.41
2019-02-14T17:16:05.813Z,96118.30
2019-02-14T17:18:34.984Z,96118.95
2019-02-14T17:21:04.940Z,96122.00
2019-02-14T17:40:19.167Z,96129.16
2019-02-14T17:42:48.291Z,96124.47
2019-02-14T17:45:17.637Z,96117.25
2019-02-14T17:47:46.944Z,96121.25
2019-02-14T17:50:15.785Z,96117.54
2019-02-14T17:52:44.700Z,96107.05
2019-02-14T17:55:13.748Z,96111.19
2019-02-14T17:57:42.863Z,96111.78
2019-02-14T18:00:12.129Z,96109.55
2019-02-14T18:02:41.168Z,96108.56
2019-02-14T18:05:10.228Z,96105.50
2019-02-14T18:07:39.831Z,96098.56
2019-02-14T18:10:09.969Z,96093.89
2019-02-14T18:12:39.119Z,96090.86
2019-02-14T18:15:10.331Z,96090.73
2019-02-14T18:17:39.279Z,96096.09
2019-02-14T18:20:09.784Z,96080.66
2019-02-14T18:22:39.222Z,96094.50
2019-02-14T18:25:09.787Z,96096.73
2019-02-14T19:01:09.093Z,96098.56
2019-02-14T19:03:38.628Z,96091.97
2019-02-14T19:06:08.558Z,96092.51
2019-02-14T19:08:38.015Z,96089.28
2019-02-14T19:11:14.921Z,96088.32
2019-02-14T19:13:36.483Z,96082.34
2019-02-14T19:16:06.111Z,96085.20
2019-02-14T19:18:35.877Z,96079.94
2019-02-14T19:21:05.582Z,96081.40
2019-02-14T19:23:35.953Z,96093.52
2019-02-14T19:26:05.403Z,96079.67
2019-02-14T19:28:34.469Z,96084.30
2019-02-14T19:31:03.863Z,96082.00
2019-02-14T19:33:32.910Z,96084.77
2019-02-14T19:36:01.797Z,96083.81
2019-02-14T19:38:30.721Z,96085.10
2019-02-14T19:41:00.289Z,96072.20
2019-02-14T19:43:29.423Z,96068.26
2019-02-14T19:45:58.395Z,96063.45
2019-02-14T19:48:27.480Z,96066.98
2019-02-14T19:50:57.534Z,96059.83
2019-02-14T19:53:26.656Z,96054.02
2019-02-14T19:55:55.683Z,96050.44
2019-02-14T19:58:24.717Z,96043.09
2019-02-14T20:00:53.636Z,96057.62
2019-02-14T20:03:22.443Z,96054.53
2019-02-14T20:05:51.572Z,96055.43
2019-02-14T20:08:20.444Z,96063.98
2019-02-14T20:10:49.310Z,96068.15
2019-02-14T20:13:18.363Z,96065.39
2019-02-14T20:15:47.434Z,96062.98
2019-02-14T20:18:16.529Z,96062.16
2019-02-14T20:20:45.432Z,96062.19
2019-02-14T20:23:14.476Z,96067.70
2019-02-14T20:25:43.350Z,96065.11
2019-02-14T20:28:13.599Z,96068.98
2019-02-14T20:30:42.640Z,96073.96
2019-02-14T20:33:12.316Z,96071.20
2019-02-14T20:35:42.045Z,96074.27
2019-02-14T20:38:11.423Z,96070.25
2019-02-14T20:40:40.519Z,96084.55
2019-02-14T20:43:09.936Z,96079.88
2019-02-14T20:45:38.909Z,96088.77
2019-02-14T20:48:08.434Z,96087.67
2019-02-14T20:50:37.504Z,96078.28
2019-02-14T20:53:06.592Z,96075.42
2019-02-14T20:55:35.520Z,96077.00
2019-02-14T20:58:04.610Z,96062.17
2019-02-14T21:00:36.750Z,96061.86
2019-02-14T21:03:06.239Z,96054.14
2019-02-14T21:05:35.271Z,96048.44
2019-02-14T21:08:04.147Z,96039.57
2019-02-14T21:10:33.291Z,96037.93
2019-02-14T21:13:02.455Z,96028.61
2019-02-14T21:15:31.610Z,96039.42
2019-02-14T21:18:01.175Z,96040.44
2019-02-14T21:20:30.464Z,96034.95
2019-02-14T21:23:00.420Z,96042.83
2019-02-14T21:25:31.145Z,96040.25
2019-02-14T21:28:00.839Z,96033.66
2019-02-14T21:30:34.336Z,96029.61
2019-02-14T21:32:59.038Z,96030.25
2019-02-14T21:35:28.133Z,96032.50
2019-02-14T21:37:57.190Z,96031.19
2019-02-14T21:40:27.315Z,96028.03
2019-02-14T21:42:56.524Z,96032.12
2019-02-14T22:02:10.969Z,96019.14
2019-02-14T22:04:40.191Z,96019.77
2019-02-14T22:07:09.143Z,96015.16
2019-02-14T22:09:38.978Z,96003.54
2019-02-14T22:12:07.963Z,96009.53
2019-02-14T22:14:36.686Z,96008.06
2019-02-14T22:17:06.187Z,96008.06
2019-02-14T22:19:36.135Z,96001.92
2019-02-14T22:22:05.523Z,96012.88
2019-02-14T22:24:34.595Z,96006.28
2019-02-14T22:27:04.246Z,96013.34
2019-02-14T22:29:34.112Z,96014.86
2019-02-14T22:32:03.088Z,96012.28
2019-02-14T22:34:31.969Z,96014.81
2019-02-14T22:37:01.439Z,96020.33
2019-02-14T22:39:30.367Z,96013.69
2019-02-14T22:41:59.599Z,96008.70
2019-02-14T22:44:28.379Z,96013.23
2019-02-14T22:46:57.447Z,96009.34
2019-02-14T22:49:27.634Z,96018.67
2019-02-14T22:51:56.693Z,96015.45
2019-02-14T22:54:25.695Z,96012.57
2019-02-14T22:56:54.639Z,96011.59
2019-02-14T22:59:23.692Z,96009.98
2019-02-14T23:01:53.172Z,96004.36
2019-02-14T23:04:22.148Z,96011.57
2019-02-14T23:06:50.953Z,96002.37
2019-02-14T23:09:20.479Z,96003.53
2019-02-14T23:11:50.008Z,96009.36
2019-02-14T23:14:19.992Z,96009.70
2019-02-14T23:16:49.427Z,96016.16
2019-02-14T23:19:18.932Z,96017.40
2019-02-14T23:21:48.025Z,96013.69
2019-02-14T23:24:16.931Z,96016.91
2019-02-14T23:26:46.883Z,96009.64
2019-02-14T23:29:16.821Z,96017.39
2019-02-14T23:31:45.850Z,96011.28
2019-02-14T23:34:14.911Z,96017.56
2019-02-14T23:36:43.809Z,96017.36
2019-02-14T23:39:12.951Z,96002.06
2019-02-14T23:41:41.900Z,96009.45
2019-02-14T23:44:10.999Z,96012.21
2019-02-14T23:46:40.025Z,96011.57
2019-02-14T23:49:09.168Z,96007.03
2019-02-14T23:51:38.581Z,96005.86
2019-02-14T23:54:07.515Z,96003.28
2019-02-14T23:56:36.470Z,96002.81
2019-02-14T23:59:06.064Z,95996.31
